sensor_id;sensor_type;location;lat;lon;timestamp;P1;durP1;ratioP1;P2;durP2;ratioP2
54269;SDS011;40181;51.560;13.000;2023-03-17T00:02:11;3.83;;;2.30;;
54269;SDS011;40181;51.560;13.000;2023-03-17T00:04:40;4.93;;;3.60;;
54269;SDS011;40181;51.560;13.000;2023-03-17T00:07:13;4.13;;;2.83;;
54269;SDS011;40181;51.560;13.000;2023-03-17T00:09:44;2.85;;;2.38;;
54269;SDS011;40181;51.560;13.000;2023-03-17T00:12:13;3.20;;;2.60;;
54269;SDS011;40181;51.560;13.000;2023-03-17T00:14:43;5.30;;;2.63;;
54269;SDS011;40181;51.560;13.000;2023-03-17T00:17:12;3.63;;;2.28;;
54269;SDS011;40181;51.560;13.000;2023-03-17T00:19:44;4.57;;;2.85;;
54269;SDS011;40181;51.560;13.000;2023-03-17T00:22:14;3.25;;;2.03;;
54269;SDS011;40181;51.560;13.000;2023-03-17T00:24:46;2.83;;;2.42;;
54269;SDS011;40181;51.560;13.000;2023-03-17T00:27:15;2.45;;;2.13;;
54269;SDS011;40181;51.560;13.000;2023-03-17T00:29:44;3.08;;;2.17;;
54269;SDS011;40181;51.560;13.000;2023-03-17T00:32:14;2.97;;;2.30;;
54269;SDS011;40181;51.560;13.000;2023-03-17T00:34:47;3.13;;;2.45;;
54269;SDS011;40181;51.560;13.000;2023-03-17T00:37:16;3.35;;;2.30;;
54269;SDS011;40181;51.560;13.000;2023-03-17T00:39:45;7.90;;;2.90;;
54269;SDS011;40181;51.560;13.000;2023-03-17T00:42:14;6.32;;;2.85;;
54269;SDS011;40181;51.560;13.000;2023-03-17T00:44:43;3.28;;;2.10;;
54269;SDS011;40181;51.560;13.000;2023-03-17T00:47:12;4.70;;;3.00;;
54269;SDS011;40181;51.560;13.000;2023-03-17T00:49:41;4.68;;;2.85;;
54269;SDS011;40181;51.560;13.000;2023-03-17T00:52:13;4.05;;;2.72;;
54269;SDS011;40181;51.560;13.000;2023-03-17T00:54:42;4.40;;;2.72;;
54269;SDS011;40181;51.560;13.000;2023-03-17T00:57:12;2.78;;;2.10;;
54269;SDS011;40181;51.560;13.000;2023-03-17T00:59:41;3.20;;;2.35;;
54269;SDS011;40181;51.560;13.000;2023-03-17T01:02:10;3.65;;;2.65;;
54269;SDS011;40181;51.560;13.000;2023-03-17T01:04:40;3.55;;;2.75;;
54269;SDS011;40181;51.560;13.000;2023-03-17T01:07:09;3.25;;;2.10;;
54269;SDS011;40181;51.560;13.000;2023-03-17T01:09:41;3.20;;;2.47;;
54269;SDS011;40181;51.560;13.000;2023-03-17T01:12:11;5.60;;;2.50;;
54269;SDS011;40181;51.560;13.000;2023-03-17T01:14:40;5.40;;;2.92;;
54269;SDS011;40181;51.560;13.000;2023-03-17T01:17:11;4.32;;;2.78;;
54269;SDS011;40181;51.560;13.000;2023-03-17T01:19:44;5.82;;;2.78;;
54269;SDS011;40181;51.560;13.000;2023-03-17T01:22:16;3.25;;;2.53;;
54269;SDS011;40181;51.560;13.000;2023-03-17T01:24:45;3.83;;;2.78;;
54269;SDS011;40181;51.560;13.000;2023-03-17T01:27:14;4.72;;;2.30;;
54269;SDS011;40181;51.560;13.000;2023-03-17T01:29:43;8.25;;;2.90;;
54269;SDS011;40181;51.560;13.000;2023-03-17T01:32:13;4.38;;;3.38;;
54269;SDS011;40181;51.560;13.000;2023-03-17T01:34:42;3.47;;;2.67;;
54269;SDS011;40181;51.560;13.000;2023-03-17T01:37:11;2.63;;;2.25;;
54269;SDS011;40181;51.560;13.000;2023-03-17T01:39:43;4.90;;;2.70;;
54269;SDS011;40181;51.560;13.000;2023-03-17T01:42:12;5.38;;;3.15;;
54269;SDS011;40181;51.560;13.000;2023-03-17T01:44:57;6.38;;;3.20;;
54269;SDS011;40181;51.560;13.000;2023-03-17T01:47:28;2.83;;;2.40;;
54269;SDS011;40181;51.560;13.000;2023-03-17T01:49:58;2.90;;;2.30;;
54269;SDS011;40181;51.560;13.000;2023-03-17T01:52:32;2.30;;;2.10;;
54269;SDS011;40181;51.560;13.000;2023-03-17T01:55:07;2.75;;;2.35;;
54269;SDS011;40181;51.560;13.000;2023-03-17T01:57:40;3.03;;;2.72;;
54269;SDS011;40181;51.560;13.000;2023-03-17T02:00:16;3.60;;;2.75;;
54269;SDS011;40181;51.560;13.000;2023-03-17T02:05:17;4.63;;;2.92;;
54269;SDS011;40181;51.560;13.000;2023-03-17T02:07:51;4.47;;;2.55;;
54269;SDS011;40181;51.560;13.000;2023-03-17T02:10:24;4.18;;;2.55;;
54269;SDS011;40181;51.560;13.000;2023-03-17T02:12:55;4.50;;;2.72;;
54269;SDS011;40181;51.560;13.000;2023-03-17T02:15:34;3.13;;;2.65;;
54269;SDS011;40181;51.560;13.000;2023-03-17T02:18:06;2.17;;;2.00;;
54269;SDS011;40181;51.560;13.000;2023-03-17T02:24:01;3.55;;;2.70;;
54269;SDS011;40181;51.560;13.000;2023-03-17T02:26:36;3.13;;;2.75;;
54269;SDS011;40181;51.560;13.000;2023-03-17T02:29:05;2.70;;;2.25;;
54269;SDS011;40181;51.560;13.000;2023-03-17T02:31:35;3.53;;;2.65;;
54269;SDS011;40181;51.560;13.000;2023-03-17T02:34:04;3.38;;;2.67;;
54269;SDS011;40181;51.560;13.000;2023-03-17T02:36:37;3.53;;;2.70;;
54269;SDS011;40181;51.560;13.000;2023-03-17T02:39:06;3.75;;;2.80;;
54269;SDS011;40181;51.560;13.000;2023-03-17T02:41:35;4.70;;;3.10;;
54269;SDS011;40181;51.560;13.000;2023-03-17T02:44:04;3.38;;;2.50;;
54269;SDS011;40181;51.560;13.000;2023-03-17T02:46:33;4.00;;;2.40;;
54269;SDS011;40181;51.560;13.000;2023-03-17T02:49:03;2.85;;;2.30;;
54269;SDS011;40181;51.560;13.000;2023-03-17T02:51:33;2.88;;;2.50;;
54269;SDS011;40181;51.560;13.000;2023-03-17T02:54:04;3.55;;;2.67;;
54269;SDS011;40181;51.560;13.000;2023-03-17T02:56:33;4.32;;;2.92;;
54269;SDS011;40181;51.560;13.000;2023-03-17T02:59:03;5.53;;;3.05;;
54269;SDS011;40181;51.560;13.000;2023-03-17T03:01:33;4.93;;;2.70;;
54269;SDS011;40181;51.560;13.000;2023-03-17T03:04:02;5.47;;;2.97;;
54269;SDS011;40181;51.560;13.000;2023-03-17T03:06:32;7.97;;;3.13;;
54269;SDS011;40181;51.560;13.000;2023-03-17T03:09:06;5.25;;;3.10;;
54269;SDS011;40181;51.560;13.000;2023-03-17T03:11:35;4.45;;;3.03;;
54269;SDS011;40181;51.560;13.000;2023-03-17T03:14:05;5.57;;;3.47;;
54269;SDS011;40181;51.560;13.000;2023-03-17T03:16:35;5.10;;;3.22;;
54269;SDS011;40181;51.560;13.000;2023-03-17T03:19:04;4.15;;;3.05;;
54269;SDS011;40181;51.560;13.000;2023-03-17T03:21:34;4.10;;;2.70;;
54269;SDS011;40181;51.560;13.000;2023-03-17T03:24:06;4.78;;;3.00;;
54269;SDS011;40181;51.560;13.000;2023-03-17T03:26:36;4.45;;;2.47;;
54269;SDS011;40181;51.560;13.000;2023-03-17T03:29:05;3.75;;;2.78;;
54269;SDS011;40181;51.560;13.000;2023-03-17T03:31:34;3.20;;;2.90;;
54269;SDS011;40181;51.560;13.000;2023-03-17T03:34:03;3.80;;;3.03;;
54269;SDS011;40181;51.560;13.000;2023-03-17T03:36:32;4.13;;;3.00;;
54269;SDS011;40181;51.560;13.000;2023-03-17T03:39:01;4.07;;;2.83;;
54269;SDS011;40181;51.560;13.000;2023-03-17T03:41:33;3.03;;;2.42;;
54269;SDS011;40181;51.560;13.000;2023-03-17T03:44:02;6.60;;;3.00;;
54269;SDS011;40181;51.560;13.000;2023-03-17T03:46:31;4.95;;;2.45;;
54269;SDS011;40181;51.560;13.000;2023-03-17T03:49:00;3.25;;;2.60;;
54269;SDS011;40181;51.560;13.000;2023-03-17T03:51:30;7.13;;;3.25;;
54269;SDS011;40181;51.560;13.000;2023-03-17T03:53:59;6.13;;;2.97;;
54269;SDS011;40181;51.560;13.000;2023-03-17T03:56:28;2.63;;;2.42;;
54269;SDS011;40181;51.560;13.000;2023-03-17T03:59:00;5.90;;;3.47;;
54269;SDS011;40181;51.560;13.000;2023-03-17T04:01:29;4.13;;;2.97;;
54269;SDS011;40181;51.560;13.000;2023-03-17T04:03:58;4.22;;;2.67;;
54269;SDS011;40181;51.560;13.000;2023-03-17T04:06:27;5.10;;;3.03;;
54269;SDS011;40181;51.560;13.000;2023-03-17T04:08:56;3.28;;;2.70;;
54269;SDS011;40181;51.560;13.000;2023-03-17T04:11:25;2.70;;;2.15;;
54269;SDS011;40181;51.560;13.000;2023-03-17T04:13:54;7.40;;;2.72;;
54269;SDS011;40181;51.560;13.000;2023-03-17T04:16:25;3.10;;;2.75;;
54269;SDS011;40181;51.560;13.000;2023-03-17T04:18:54;4.07;;;2.97;;
54269;SDS011;40181;51.560;13.000;2023-03-17T04:21:24;3.70;;;2.97;;
54269;SDS011;40181;51.560;13.000;2023-03-17T04:23:53;4.55;;;2.95;;
54269;SDS011;40181;51.560;13.000;2023-03-17T04:26:22;3.15;;;2.85;;
54269;SDS011;40181;51.560;13.000;2023-03-17T04:28:51;2.97;;;2.67;;
54269;SDS011;40181;51.560;13.000;2023-03-17T04:31:20;4.18;;;3.15;;
54269;SDS011;40181;51.560;13.000;2023-03-17T04:33:51;3.55;;;2.78;;
54269;SDS011;40181;51.560;13.000;2023-03-17T04:36:21;3.30;;;2.67;;
54269;SDS011;40181;51.560;13.000;2023-03-17T04:38:51;4.38;;;2.95;;
54269;SDS011;40181;51.560;13.000;2023-03-17T04:41:20;5.28;;;2.90;;
54269;SDS011;40181;51.560;13.000;2023-03-17T04:43:49;8.52;;;2.92;;
54269;SDS011;40181;51.560;13.000;2023-03-17T04:46:18;6.72;;;3.30;;
54269;SDS011;40181;51.560;13.000;2023-03-17T04:48:47;4.03;;;2.97;;
54269;SDS011;40181;51.560;13.000;2023-03-17T04:51:18;4.50;;;2.55;;
54269;SDS011;40181;51.560;13.000;2023-03-17T04:53:47;4.43;;;3.25;;
54269;SDS011;40181;51.560;13.000;2023-03-17T04:56:17;2.95;;;2.50;;
54269;SDS011;40181;51.560;13.000;2023-03-17T04:58:46;5.30;;;2.95;;
54269;SDS011;40181;51.560;13.000;2023-03-17T05:01:15;3.67;;;2.53;;
54269;SDS011;40181;51.560;13.000;2023-03-17T05:03:45;3.95;;;2.58;;
54269;SDS011;40181;51.560;13.000;2023-03-17T05:06:17;4.50;;;2.85;;
54269;SDS011;40181;51.560;13.000;2023-03-17T05:08:46;4.95;;;3.28;;
54269;SDS011;40181;51.560;13.000;2023-03-17T05:11:17;3.58;;;2.83;;
54269;SDS011;40181;51.560;13.000;2023-03-17T05:13:46;4.25;;;2.70;;
54269;SDS011;40181;51.560;13.000;2023-03-17T05:16:16;5.05;;;3.17;;
54269;SDS011;40181;51.560;13.000;2023-03-17T05:18:46;4.10;;;2.90;;
54269;SDS011;40181;51.560;13.000;2023-03-17T05:21:17;4.22;;;2.83;;
54269;SDS011;40181;51.560;13.000;2023-03-17T05:23:46;4.40;;;3.10;;
54269;SDS011;40181;51.560;13.000;2023-03-17T05:26:16;3.17;;;2.70;;
54269;SDS011;40181;51.560;13.000;2023-03-17T05:28:45;5.72;;;2.83;;
54269;SDS011;40181;51.560;13.000;2023-03-17T05:31:14;4.05;;;3.25;;
54269;SDS011;40181;51.560;13.000;2023-03-17T05:33:43;4.82;;;2.90;;
54269;SDS011;40181;51.560;13.000;2023-03-17T05:36:13;3.88;;;3.03;;
54269;SDS011;40181;51.560;13.000;2023-03-17T05:38:44;8.60;;;3.78;;
54269;SDS011;40181;51.560;13.000;2023-03-17T05:41:13;3.72;;;2.75;;
54269;SDS011;40181;51.560;13.000;2023-03-17T05:43:42;3.50;;;2.60;;
54269;SDS011;40181;51.560;13.000;2023-03-17T05:46:11;5.05;;;2.97;;
54269;SDS011;40181;51.560;13.000;2023-03-17T05:48:40;3.78;;;3.00;;
54269;SDS011;40181;51.560;13.000;2023-03-17T05:51:11;3.47;;;2.63;;
54269;SDS011;40181;51.560;13.000;2023-03-17T05:53:40;4.00;;;2.85;;
54269;SDS011;40181;51.560;13.000;2023-03-17T05:56:12;4.53;;;3.50;;
54269;SDS011;40181;51.560;13.000;2023-03-17T05:58:41;4.97;;;3.30;;
54269;SDS011;40181;51.560;13.000;2023-03-17T06:03:49;5.60;;;3.13;;
54269;SDS011;40181;51.560;13.000;2023-03-17T06:06:48;4.68;;;2.60;;
54269;SDS011;40181;51.560;13.000;2023-03-17T06:12:48;4.75;;;2.63;;
54269;SDS011;40181;51.560;13.000;2023-03-17T06:17:19;4.22;;;2.53;;
54269;SDS011;40181;51.560;13.000;2023-03-17T06:24:43;4.82;;;3.20;;
54269;SDS011;40181;51.560;13.000;2023-03-17T06:38:20;4.43;;;2.95;;
54269;SDS011;40181;51.560;13.000;2023-03-17T06:40:49;3.30;;;2.78;;
54269;SDS011;40181;51.560;13.000;2023-03-17T06:43:18;5.95;;;3.65;;
54269;SDS011;40181;51.560;13.000;2023-03-17T06:45:48;3.83;;;2.85;;
54269;SDS011;40181;51.560;13.000;2023-03-17T06:48:18;7.05;;;3.55;;
54269;SDS011;40181;51.560;13.000;2023-03-17T06:50:47;4.72;;;3.03;;
54269;SDS011;40181;51.560;13.000;2023-03-17T06:53:16;5.45;;;3.38;;
54269;SDS011;40181;51.560;13.000;2023-03-17T06:55:48;4.05;;;3.28;;
54269;SDS011;40181;51.560;13.000;2023-03-17T06:58:17;6.03;;;4.25;;
54269;SDS011;40181;51.560;13.000;2023-03-17T07:00:47;6.82;;;5.35;;
54269;SDS011;40181;51.560;13.000;2023-03-17T07:03:18;6.70;;;5.05;;
54269;SDS011;40181;51.560;13.000;2023-03-17T07:05:49;5.63;;;4.25;;
54269;SDS011;40181;51.560;13.000;2023-03-17T07:08:18;5.38;;;4.03;;
54269;SDS011;40181;51.560;13.000;2023-03-17T07:10:50;6.05;;;4.15;;
54269;SDS011;40181;51.560;13.000;2023-03-17T07:13:23;6.38;;;3.97;;
54269;SDS011;40181;51.560;13.000;2023-03-17T07:15:52;7.88;;;3.90;;
54269;SDS011;40181;51.560;13.000;2023-03-17T07:18:21;5.03;;;3.50;;
54269;SDS011;40181;51.560;13.000;2023-03-17T07:20:50;4.68;;;3.13;;
54269;SDS011;40181;51.560;13.000;2023-03-17T07:23:20;5.57;;;3.88;;
54269;SDS011;40181;51.560;13.000;2023-03-17T07:28:22;5.22;;;3.67;;
54269;SDS011;40181;51.560;13.000;2023-03-17T07:30:52;7.68;;;3.47;;
54269;SDS011;40181;51.560;13.000;2023-03-17T07:33:22;5.47;;;4.20;;
54269;SDS011;40181;51.560;13.000;2023-03-17T07:35:51;4.82;;;3.03;;
54269;SDS011;40181;51.560;13.000;2023-03-17T07:38:21;5.50;;;3.75;;
54269;SDS011;40181;51.560;13.000;2023-03-17T07:40:53;4.20;;;3.03;;
54269;SDS011;40181;51.560;13.000;2023-03-17T07:43:22;4.10;;;2.97;;
54269;SDS011;40181;51.560;13.000;2023-03-17T07:45:51;5.72;;;3.90;;
54269;SDS011;40181;51.560;13.000;2023-03-17T07:48:20;4.85;;;3.20;;
54269;SDS011;40181;51.560;13.000;2023-03-17T07:50:49;4.93;;;3.55;;
54269;SDS011;40181;51.560;13.000;2023-03-17T07:53:18;10.73;;;3.72;;
54269;SDS011;40181;51.560;13.000;2023-03-17T07:55:47;7.15;;;4.35;;
54269;SDS011;40181;51.560;13.000;2023-03-17T07:58:19;5.70;;;4.15;;
54269;SDS011;40181;51.560;13.000;2023-03-17T08:00:48;6.38;;;3.88;;
54269;SDS011;40181;51.560;13.000;2023-03-17T08:03:17;5.15;;;3.85;;
54269;SDS011;40181;51.560;13.000;2023-03-17T08:05:49;5.50;;;3.83;;
54269;SDS011;40181;51.560;13.000;2023-03-17T08:08:23;9.15;;;4.35;;
54269;SDS011;40181;51.560;13.000;2023-03-17T08:10:56;6.22;;;3.88;;
54269;SDS011;40181;51.560;13.000;2023-03-17T08:13:32;3.63;;;3.05;;
54269;SDS011;40181;51.560;13.000;2023-03-17T08:16:01;3.58;;;2.80;;
54269;SDS011;40181;51.560;13.000;2023-03-17T08:18:31;4.47;;;3.03;;
54269;SDS011;40181;51.560;13.000;2023-03-17T08:21:00;3.65;;;2.53;;
54269;SDS011;40181;51.560;13.000;2023-03-17T08:23:32;4.13;;;2.75;;
54269;SDS011;40181;51.560;13.000;2023-03-17T08:26:01;5.15;;;2.58;;
54269;SDS011;40181;51.560;13.000;2023-03-17T08:28:35;6.10;;;3.20;;
54269;SDS011;40181;51.560;13.000;2023-03-17T08:31:07;4.32;;;2.95;;
54269;SDS011;40181;51.560;13.000;2023-03-17T08:33:40;4.75;;;3.30;;
54269;SDS011;40181;51.560;13.000;2023-03-17T08:36:10;7.00;;;3.40;;
54269;SDS011;40181;51.560;13.000;2023-03-17T08:38:40;5.32;;;3.22;;
54269;SDS011;40181;51.560;13.000;2023-03-17T08:41:11;7.18;;;3.33;;
54269;SDS011;40181;51.560;13.000;2023-03-17T08:43:46;5.55;;;2.53;;
54269;SDS011;40181;51.560;13.000;2023-03-17T08:46:17;4.47;;;3.22;;
54269;SDS011;40181;51.560;13.000;2023-03-17T08:48:49;7.70;;;3.58;;
54269;SDS011;40181;51.560;13.000;2023-03-17T08:51:20;4.38;;;3.20;;
54269;SDS011;40181;51.560;13.000;2023-03-17T08:56:20;4.05;;;3.20;;
54269;SDS011;40181;51.560;13.000;2023-03-17T08:58:52;5.88;;;4.03;;
54269;SDS011;40181;51.560;13.000;2023-03-17T09:01:22;4.18;;;2.40;;
54269;SDS011;40181;51.560;13.000;2023-03-17T09:03:53;7.20;;;3.22;;
54269;SDS011;40181;51.560;13.000;2023-03-17T09:06:23;3.92;;;2.67;;
54269;SDS011;40181;51.560;13.000;2023-03-17T09:08:52;6.72;;;3.08;;
54269;SDS011;40181;51.560;13.000;2023-03-17T09:11:22;2.60;;;2.17;;
54269;SDS011;40181;51.560;13.000;2023-03-17T09:13:56;3.13;;;2.45;;
54269;SDS011;40181;51.560;13.000;2023-03-17T09:16:25;5.45;;;3.33;;
54269;SDS011;40181;51.560;13.000;2023-03-17T09:18:58;3.55;;;2.45;;
54269;SDS011;40181;51.560;13.000;2023-03-17T09:21:27;4.47;;;2.90;;
54269;SDS011;40181;51.560;13.000;2023-03-17T09:23:57;6.10;;;3.05;;
54269;SDS011;40181;51.560;13.000;2023-03-17T09:26:26;9.38;;;3.28;;
54269;SDS011;40181;51.560;13.000;2023-03-17T09:28:58;4.97;;;2.65;;
54269;SDS011;40181;51.560;13.000;2023-03-17T09:31:27;4.03;;;2.17;;
54269;SDS011;40181;51.560;13.000;2023-03-17T09:33:56;3.47;;;2.65;;
54269;SDS011;40181;51.560;13.000;2023-03-17T09:36:25;4.05;;;2.70;;
54269;SDS011;40181;51.560;13.000;2023-03-17T09:38:54;6.95;;;3.05;;
54269;SDS011;40181;51.560;13.000;2023-03-17T09:44:37;4.57;;;2.40;;
54269;SDS011;40181;51.560;13.000;2023-03-17T09:47:28;5.35;;;2.90;;
54269;SDS011;40181;51.560;13.000;2023-03-17T09:50:18;5.00;;;3.13;;
54269;SDS011;40181;51.560;13.000;2023-03-17T09:52:55;4.78;;;2.47;;
54269;SDS011;40181;51.560;13.000;2023-03-17T09:55:26;3.20;;;2.00;;
54269;SDS011;40181;51.560;13.000;2023-03-17T09:57:57;5.35;;;2.97;;
54269;SDS011;40181;51.560;13.000;2023-03-17T10:00:30;4.47;;;2.88;;
54269;SDS011;40181;51.560;13.000;2023-03-17T10:03:00;2.95;;;2.25;;
54269;SDS011;40181;51.560;13.000;2023-03-17T10:05:29;3.65;;;2.70;;
54269;SDS011;40181;51.560;13.000;2023-03-17T10:08:04;14.48;;;3.33;;
54269;SDS011;40181;51.560;13.000;2023-03-17T10:10:41;4.13;;;2.85;;
54269;SDS011;40181;51.560;13.000;2023-03-17T10:13:18;8.32;;;3.25;;
54269;SDS011;40181;51.560;13.000;2023-03-17T10:15:59;5.57;;;2.38;;
54269;SDS011;40181;51.560;13.000;2023-03-17T10:18:38;12.95;;;2.92;;
54269;SDS011;40181;51.560;13.000;2023-03-17T10:21:14;4.55;;;2.40;;
54269;SDS011;40181;51.560;13.000;2023-03-17T10:23:48;5.88;;;2.30;;
54269;SDS011;40181;51.560;13.000;2023-03-17T10:26:23;3.28;;;2.03;;
54269;SDS011;40181;51.560;13.000;2023-03-17T10:28:58;8.52;;;5.05;;
54269;SDS011;40181;51.560;13.000;2023-03-17T10:31:32;5.30;;;3.60;;
54269;SDS011;40181;51.560;13.000;2023-03-17T10:34:10;6.30;;;2.80;;
54269;SDS011;40181;51.560;13.000;2023-03-17T10:36:43;3.13;;;1.88;;
54269;SDS011;40181;51.560;13.000;2023-03-17T10:39:16;5.80;;;3.05;;
54269;SDS011;40181;51.560;13.000;2023-03-17T10:41:51;4.28;;;2.38;;
54269;SDS011;40181;51.560;13.000;2023-03-17T10:44:36;2.80;;;1.83;;
54269;SDS011;40181;51.560;13.000;2023-03-17T10:47:21;3.65;;;1.92;;
54269;SDS011;40181;51.560;13.000;2023-03-17T10:49:56;3.22;;;2.42;;
54269;SDS011;40181;51.560;13.000;2023-03-17T10:52:30;6.47;;;3.40;;
54269;SDS011;40181;51.560;13.000;2023-03-17T10:55:06;4.00;;;2.72;;
54269;SDS011;40181;51.560;13.000;2023-03-17T10:57:38;9.07;;;3.67;;
54269;SDS011;40181;51.560;13.000;2023-03-17T11:00:17;7.65;;;3.33;;
54269;SDS011;40181;51.560;13.000;2023-03-17T11:02:54;3.75;;;2.15;;
54269;SDS011;40181;51.560;13.000;2023-03-17T11:05:26;3.90;;;2.28;;
54269;SDS011;40181;51.560;13.000;2023-03-17T11:07:57;4.88;;;2.92;;
54269;SDS011;40181;51.560;13.000;2023-03-17T11:10:38;6.95;;;3.08;;
54269;SDS011;40181;51.560;13.000;2023-03-17T11:13:08;4.70;;;2.65;;
54269;SDS011;40181;51.560;13.000;2023-03-17T11:15:39;3.17;;;2.63;;
54269;SDS011;40181;51.560;13.000;2023-03-17T11:18:16;3.75;;;1.95;;
54269;SDS011;40181;51.560;13.000;2023-03-17T11:20:50;5.25;;;2.30;;
54269;SDS011;40181;51.560;13.000;2023-03-17T11:29:23;2.75;;;2.00;;
54269;SDS011;40181;51.560;13.000;2023-03-17T11:32:04;3.03;;;1.90;;
54269;SDS011;40181;51.560;13.000;2023-03-17T11:34:58;4.40;;;2.38;;
54269;SDS011;40181;51.560;13.000;2023-03-17T11:37:47;4.18;;;1.88;;
54269;SDS011;40181;51.560;13.000;2023-03-17T11:40:32;3.42;;;2.28;;
54269;SDS011;40181;51.560;13.000;2023-03-17T11:43:09;6.07;;;2.03;;
54269;SDS011;40181;51.560;13.000;2023-03-17T11:45:54;3.15;;;1.48;;
54269;SDS011;40181;51.560;13.000;2023-03-17T11:48:33;5.80;;;2.47;;
54269;SDS011;40181;51.560;13.000;2023-03-17T11:51:17;3.03;;;1.92;;
54269;SDS011;40181;51.560;13.000;2023-03-17T11:54:02;2.40;;;1.65;;
54269;SDS011;40181;51.560;13.000;2023-03-17T11:56:39;3.20;;;1.65;;
54269;SDS011;40181;51.560;13.000;2023-03-17T11:59:16;5.63;;;2.20;;
54269;SDS011;40181;51.560;13.000;2023-03-17T12:01:55;3.28;;;1.90;;
54269;SDS011;40181;51.560;13.000;2023-03-17T12:04:35;4.03;;;1.52;;
54269;SDS011;40181;51.560;13.000;2023-03-17T12:07:18;3.90;;;1.65;;
54269;SDS011;40181;51.560;13.000;2023-03-17T12:09:54;3.00;;;2.05;;
54269;SDS011;40181;51.560;13.000;2023-03-17T12:12:31;3.03;;;2.10;;
54269;SDS011;40181;51.560;13.000;2023-03-17T12:15:08;2.90;;;2.20;;
54269;SDS011;40181;51.560;13.000;2023-03-17T12:17:47;5.72;;;2.97;;
54269;SDS011;40181;51.560;13.000;2023-03-17T12:20:23;2.67;;;1.65;;
54269;SDS011;40181;51.560;13.000;2023-03-17T12:23:03;3.47;;;2.10;;
54269;SDS011;40181;51.560;13.000;2023-03-17T12:25:39;4.50;;;1.83;;
54269;SDS011;40181;51.560;13.000;2023-03-17T12:28:19;6.38;;;1.98;;
54269;SDS011;40181;51.560;13.000;2023-03-17T12:30:53;2.78;;;1.45;;
54269;SDS011;40181;51.560;13.000;2023-03-17T12:33:29;4.10;;;1.77;;
54269;SDS011;40181;51.560;13.000;2023-03-17T12:36:04;2.85;;;1.27;;
54269;SDS011;40181;51.560;13.000;2023-03-17T12:38:44;2.63;;;1.65;;
54269;SDS011;40181;51.560;13.000;2023-03-17T12:41:25;2.42;;;1.80;;
54269;SDS011;40181;51.560;13.000;2023-03-17T12:44:19;3.60;;;2.20;;
54269;SDS011;40181;51.560;13.000;2023-03-17T12:47:12;3.83;;;1.92;;
54269;SDS011;40181;51.560;13.000;2023-03-17T12:50:06;3.22;;;1.83;;
54269;SDS011;40181;51.560;13.000;2023-03-17T12:58:29;4.88;;;2.38;;
54269;SDS011;40181;51.560;13.000;2023-03-17T13:01:05;4.65;;;3.05;;
54269;SDS011;40181;51.560;13.000;2023-03-17T13:06:42;2.47;;;1.67;;
54269;SDS011;40181;51.560;13.000;2023-03-17T13:15:26;3.60;;;2.17;;
54269;SDS011;40181;51.560;13.000;2023-03-17T13:18:26;2.17;;;1.45;;
54269;SDS011;40181;51.560;13.000;2023-03-17T13:21:15;5.85;;;2.00;;
54269;SDS011;40181;51.560;13.000;2023-03-17T13:24:17;4.60;;;2.30;;
54269;SDS011;40181;51.560;13.000;2023-03-17T13:27:08;7.03;;;2.53;;
54269;SDS011;40181;51.560;13.000;2023-03-17T13:29:44;6.60;;;2.25;;
54269;SDS011;40181;51.560;13.000;2023-03-17T13:35:14;1.90;;;1.40;;
54269;SDS011;40181;51.560;13.000;2023-03-17T13:38:22;2.05;;;1.48;;
54269;SDS011;40181;51.560;13.000;2023-03-17T13:41:11;3.05;;;1.77;;
54269;SDS011;40181;51.560;13.000;2023-03-17T13:44:14;1.45;;;1.35;;
54269;SDS011;40181;51.560;13.000;2023-03-17T13:47:14;2.75;;;1.45;;
54269;SDS011;40181;51.560;13.000;2023-03-17T13:49:56;3.85;;;1.70;;
54269;SDS011;40181;51.560;13.000;2023-03-17T13:52:30;2.38;;;1.48;;
54269;SDS011;40181;51.560;13.000;2023-03-17T14:01:04;3.38;;;1.40;;
54269;SDS011;40181;51.560;13.000;2023-03-17T14:03:45;2.95;;;1.60;;
54269;SDS011;40181;51.560;13.000;2023-03-17T14:06:18;2.72;;;1.52;;
54269;SDS011;40181;51.560;13.000;2023-03-17T14:08:52;4.20;;;1.65;;
54269;SDS011;40181;51.560;13.000;2023-03-17T14:11:26;2.40;;;1.27;;
54269;SDS011;40181;51.560;13.000;2023-03-17T14:14:09;2.25;;;1.52;;
54269;SDS011;40181;51.560;13.000;2023-03-17T14:16:51;4.45;;;2.00;;
54269;SDS011;40181;51.560;13.000;2023-03-17T14:19:28;3.20;;;1.70;;
54269;SDS011;40181;51.560;13.000;2023-03-17T14:22:01;2.08;;;1.40;;
54269;SDS011;40181;51.560;13.000;2023-03-17T14:24:45;4.72;;;1.77;;
54269;SDS011;40181;51.560;13.000;2023-03-17T14:27:20;4.00;;;1.42;;
54269;SDS011;40181;51.560;13.000;2023-03-17T14:29:50;3.85;;;2.40;;
54269;SDS011;40181;51.560;13.000;2023-03-17T14:32:22;2.22;;;1.55;;
54269;SDS011;40181;51.560;13.000;2023-03-17T14:34:58;6.10;;;2.25;;
54269;SDS011;40181;51.560;13.000;2023-03-17T14:37:28;2.58;;;1.50;;
54269;SDS011;40181;51.560;13.000;2023-03-17T14:39:57;2.22;;;1.60;;
54269;SDS011;40181;51.560;13.000;2023-03-17T14:42:27;2.95;;;1.35;;
54269;SDS011;40181;51.560;13.000;2023-03-17T14:44:58;2.30;;;1.45;;
54269;SDS011;40181;51.560;13.000;2023-03-17T14:47:31;1.38;;;1.17;;
54269;SDS011;40181;51.560;13.000;2023-03-17T14:50:13;2.95;;;1.98;;
54269;SDS011;40181;51.560;13.000;2023-03-17T14:52:48;4.38;;;1.85;;
54269;SDS011;40181;51.560;13.000;2023-03-17T14:55:17;3.70;;;1.52;;
54269;SDS011;40181;51.560;13.000;2023-03-17T14:57:47;3.05;;;2.10;;
54269;SDS011;40181;51.560;13.000;2023-03-17T15:00:29;5.85;;;1.40;;
54269;SDS011;40181;51.560;13.000;2023-03-17T15:03:02;1.35;;;1.20;;
54269;SDS011;40181;51.560;13.000;2023-03-17T15:05:47;1.75;;;1.40;;
54269;SDS011;40181;51.560;13.000;2023-03-17T15:08:27;3.25;;;1.63;;
54269;SDS011;40181;51.560;13.000;2023-03-17T15:11:15;1.88;;;1.27;;
54269;SDS011;40181;51.560;13.000;2023-03-17T15:13:48;3.75;;;2.10;;
54269;SDS011;40181;51.560;13.000;2023-03-17T15:16:23;2.50;;;1.67;;
54269;SDS011;40181;51.560;13.000;2023-03-17T15:19:01;3.92;;;1.98;;
54269;SDS011;40181;51.560;13.000;2023-03-17T15:21:37;1.90;;;1.35;;
54269;SDS011;40181;51.560;13.000;2023-03-17T15:24:22;2.92;;;1.77;;
54269;SDS011;40181;51.560;13.000;2023-03-17T15:27:06;3.88;;;1.98;;
54269;SDS011;40181;51.560;13.000;2023-03-17T15:29:43;5.35;;;3.53;;
54269;SDS011;40181;51.560;13.000;2023-03-17T15:32:13;3.50;;;2.53;;
54269;SDS011;40181;51.560;13.000;2023-03-17T15:34:45;4.35;;;3.15;;
54269;SDS011;40181;51.560;13.000;2023-03-17T15:37:19;4.15;;;2.33;;
54269;SDS011;40181;51.560;13.000;2023-03-17T15:39:50;3.83;;;2.28;;
54269;SDS011;40181;51.560;13.000;2023-03-17T15:42:21;4.45;;;2.35;;
54269;SDS011;40181;51.560;13.000;2023-03-17T15:44:54;3.92;;;2.55;;
54269;SDS011;40181;51.560;13.000;2023-03-17T15:47:24;6.32;;;2.63;;
54269;SDS011;40181;51.560;13.000;2023-03-17T15:49:57;3.88;;;2.08;;
54269;SDS011;40181;51.560;13.000;2023-03-17T15:52:31;7.47;;;3.25;;
54269;SDS011;40181;51.560;13.000;2023-03-17T15:55:00;2.05;;;1.60;;
54269;SDS011;40181;51.560;13.000;2023-03-17T15:57:33;4.80;;;2.83;;
54269;SDS011;40181;51.560;13.000;2023-03-17T16:00:02;14.77;;;5.38;;
54269;SDS011;40181;51.560;13.000;2023-03-17T16:02:32;15.98;;;7.57;;
54269;SDS011;40181;51.560;13.000;2023-03-17T16:05:06;12.82;;;7.65;;
54269;SDS011;40181;51.560;13.000;2023-03-17T16:07:48;6.22;;;5.10;;
54269;SDS011;40181;51.560;13.000;2023-03-17T16:10:19;5.30;;;3.42;;
54269;SDS011;40181;51.560;13.000;2023-03-17T16:12:51;3.95;;;3.08;;
54269;SDS011;40181;51.560;13.000;2023-03-17T16:15:21;4.93;;;2.92;;
54269;SDS011;40181;51.560;13.000;2023-03-17T16:17:56;4.15;;;2.30;;